Ria Ea — FAD5028 — position and weather

sailwx.info

Track history (hours):
 
Tides and Currents Weather Stations Pressure Air Temp Water Temp Dewpoint Dewpoint Depression Visibility Wind Speed Wind Dir Waves Ship Positions

Ria Ea

Last reported at 2018-Jun-20 17:46 UTC. Time now 2018-Jun-22 22:59 UTC.
Position N 54°27' W 005°21'.

Length 9 m.

Type: Sailing vessel. MMSI: 227399970.

Date/timePositionNaut miles runAvg speedWind from/ knotsBaromVisibWave heightAir tempDewpointWater temp
2018-Jun-20 17:46N 54°27' W 005°21'1 3.2
2018-Jun-20 17:28N 54°28' W 005°21'1 2.6
2018-Jun-20 16:59N 54°29' W 005°22'2 4.2
2018-Jun-20 16:29N 54°31' W 005°24'2 4.1
2018-Jun-20 16:00N 54°33' W 005°24'3 6.1
2018-Jun-20 15:30N 54°35' W 005°22'3 6.9
2018-Jun-20 15:00N 54°39' W 005°20'4 7.0
2018-Jun-20 14:29N 54°42' W 005°19'3 7.2
2018-Jun-20 14:00N 54°46' W 005°18'4 7.4
2018-Jun-20 13:30N 54°49' W 005°18'  
2018-Jun-16 08:44N 55°15' W 005°49'13 8.7
2018-Jun-16 07:12N 55°13' W 006°13'1 0.1
2018-Jun-15 14:29N 55°13' W 006°14'3 6.5
2018-Jun-15 13:59N 55°15' W 006°10'3 5.6
2018-Jun-15 13:29N 55°17' W 006°07'2 3.9
2018-Jun-15 12:59N 55°18' W 006°05'2 4.5
2018-Jun-15 12:29N 55°21' W 006°05'3 5.1
2018-Jun-15 11:58N 55°23' W 006°05'3 5.7
2018-Jun-15 11:27N 55°26' W 006°07'3 5.5
2018-Jun-15 10:57N 55°29' W 006°08'3 5.2
2018-Jun-15 10:27N 55°31' W 006°10'3 5.6
2018-Jun-15 09:57N 55°34' W 006°12'3 4.9
2018-Jun-15 09:18N 55°37' W 006°12'  
2018-Jun-12 19:47N 55°38' W 006°11'4 3.9
2018-Jun-12 18:50N 55°35' W 006°15'2 6.4
2018-Jun-12 18:30N 55°34' W 006°18'3 5.3
2018-Jun-12 17:59N 55°34' W 006°23'3 5.7
2018-Jun-12 17:30N 55°33' W 006°28'3 4.9
2018-Jun-12 16:59N 55°33' W 006°33'2 4.3
2018-Jun-12 16:29N 55°33' W 006°36'2 4.4
2018-Jun-12 15:59N 55°32' W 006°40'23 3.4
2018-Jun-12 09:08N 55°28' W 007°21'1 4.9
2018-Jun-12 08:54N 55°27' W 007°23'3 5.7
2018-Jun-12 08:25N 55°27' W 007°27'3 5.4
2018-Jun-12 07:56N 55°26' W 007°32'3 5.6
2018-Jun-12 07:28N 55°24' W 007°36'3 5.5
2018-Jun-12 06:56N 55°23' W 007°40'2 4.9
2018-Jun-12 06:28N 55°22' W 007°44'3 5.6
2018-Jun-12 06:00N 55°21' W 007°48'5 6.2
2018-Jun-12 05:13N 55°19' W 007°56'1 5.7
2018-Jun-12 05:00N 55°18' W 007°58'4 5.5
2018-Jun-12 04:11N 55°17' W 008°05'1 5.9
2018-Jun-12 03:57N 55°16' W 008°07'  
Track history (hours):
 
Tides and Currents Weather Stations Pressure Air Temp Water Temp Dewpoint Dewpoint Depression Visibility Wind Speed Wind Dir Waves Ship Positions

Ria Ea

Last reported at 2018-Jun-20 17:46 UTC. Time now 2018-Jun-22 22:59 UTC.
Position N 54°27' W 005°21'.

Length 9 m.

Type: Sailing vessel. MMSI: 227399970.

Date/timePositionNaut miles runAvg speedWind from/ knotsBaromVisibWave heightAir tempDewpointWater temp
2018-Jun-20 17:46N 54°27' W 005°21'1 3.2
2018-Jun-20 17:28N 54°28' W 005°21'1 2.6
2018-Jun-20 16:59N 54°29' W 005°22'2 4.2
2018-Jun-20 16:29N 54°31' W 005°24'2 4.1
2018-Jun-20 16:00N 54°33' W 005°24'3 6.1
2018-Jun-20 15:30N 54°35' W 005°22'3 6.9
2018-Jun-20 15:00N 54°39' W 005°20'4 7.0
2018-Jun-20 14:29N 54°42' W 005°19'3 7.2
2018-Jun-20 14:00N 54°46' W 005°18'4 7.4
2018-Jun-20 13:30N 54°49' W 005°18'  
2018-Jun-16 08:44N 55°15' W 005°49'13 8.7
2018-Jun-16 07:12N 55°13' W 006°13'1 0.1
2018-Jun-15 14:29N 55°13' W 006°14'3 6.5
2018-Jun-15 13:59N 55°15' W 006°10'3 5.6
2018-Jun-15 13:29N 55°17' W 006°07'2 3.9
2018-Jun-15 12:59N 55°18' W 006°05'2 4.5
2018-Jun-15 12:29N 55°21' W 006°05'3 5.1
2018-Jun-15 11:58N 55°23' W 006°05'3 5.7
2018-Jun-15 11:27N 55°26' W 006°07'3 5.5
2018-Jun-15 10:57N 55°29' W 006°08'3 5.2
2018-Jun-15 10:27N 55°31' W 006°10'3 5.6
2018-Jun-15 09:57N 55°34' W 006°12'3 4.9
2018-Jun-15 09:18N 55°37' W 006°12'  
2018-Jun-12 19:47N 55°38' W 006°11'4 3.9
2018-Jun-12 18:50N 55°35' W 006°15'2 6.4
2018-Jun-12 18:30N 55°34' W 006°18'3 5.3
2018-Jun-12 17:59N 55°34' W 006°23'3 5.7
2018-Jun-12 17:30N 55°33' W 006°28'3 4.9
2018-Jun-12 16:59N 55°33' W 006°33'2 4.3
2018-Jun-12 16:29N 55°33' W 006°36'2 4.4
2018-Jun-12 15:59N 55°32' W 006°40'23 3.4
2018-Jun-12 09:08N 55°28' W 007°21'1 4.9
2018-Jun-12 08:54N 55°27' W 007°23'3 5.7
2018-Jun-12 08:25N 55°27' W 007°27'3 5.4
2018-Jun-12 07:56N 55°26' W 007°32'3 5.6
2018-Jun-12 07:28N 55°24' W 007°36'3 5.5
2018-Jun-12 06:56N 55°23' W 007°40'2 4.9
2018-Jun-12 06:28N 55°22' W 007°44'3 5.6
2018-Jun-12 06:00N 55°21' W 007°48'5 6.2
2018-Jun-12 05:13N 55°19' W 007°56'1 5.7
2018-Jun-12 05:00N 55°18' W 007°58'4 5.5
2018-Jun-12 04:11N 55°17' W 008°05'1 5.9
2018-Jun-12 03:57N 55°16' W 008°07'  

Dump ship's entire track history